Time;durP1;ratioP1;P1;durP2;ratioP2;P2;SDS_P1;SDS_P2;PMS_P1;PMS_P2;Temp;Humidity;BMP_temperature;BMP_pressure;BME280_temperature;BME280_humidity;BME280_pressure;Samples;Min_cycle;Max_cycle;Signal;HPM_P1;HPM_P2
2023/08/06 00:02:35;;;;;;;0.10;0.10;;;;;;;12.93;100.00;95601.78;5033939;28;20737;-81
2023/08/06 00:05:21;;;;;;;0.10;0.10;;;;;;;12.99;100.00;95600.59;5019441;28;20048;-79
2023/08/06 00:08:06;;;;;;;0.10;0.10;;;;;;;12.98;100.00;95598.22;5032376;28;20116;-79
2023/08/06 00:10:52;;;;;;;0.10;0.10;;;;;;;13.00;100.00;95601.44;5020215;28;20059;-79
2023/08/06 00:13:38;;;;;;;0.10;0.10;;;;;;;13.15;100.00;95597.75;5031950;28;20102;-79
2023/08/06 00:16:27;;;;;;;0.10;0.10;;;;;;;13.15;100.00;95587.03;5035370;28;20134;-80
2023/08/06 00:19:13;;;;;;;0.10;0.10;;;;;;;13.14;100.00;95590.78;5018716;28;20049;-80
2023/08/06 00:21:59;;;;;;;0.10;0.10;;;;;;;13.24;100.00;95585.38;5035356;28;20065;-80
2023/08/06 00:24:45;;;;;;;0.10;0.10;;;;;;;13.19;100.00;95588.88;5035418;28;20049;-80
2023/08/06 00:27:32;;;;;;;0.10;0.10;;;;;;;13.25;100.00;95574.31;5032209;28;20071;-80
2023/08/06 00:30:18;;;;;;;0.17;0.17;;;;;;;13.27;100.00;95564.09;5016860;28;20237;-80
2023/08/06 00:33:04;;;;;;;0.10;0.10;;;;;;;13.20;100.00;95569.00;5034126;28;20036;-80
2023/08/06 00:35:49;;;;;;;0.10;0.10;;;;;;;12.99;100.00;95565.69;5034296;28;20090;-80
2023/08/06 00:38:35;;;;;;;0.10;0.10;;;;;;;13.03;100.00;95566.75;5033133;28;20049;-80
2023/08/06 00:41:21;;;;;;;0.10;0.10;;;;;;;13.22;100.00;95568.72;5032601;28;20056;-80
2023/08/06 00:44:07;;;;;;;0.10;0.10;;;;;;;13.22;100.00;95556.06;5033982;28;20632;-77
2023/08/06 00:46:53;;;;;;;0.10;0.10;;;;;;;13.17;100.00;95560.69;5018594;28;20040;-77
2023/08/06 00:49:39;;;;;;;0.10;0.10;;;;;;;13.14;100.00;95554.00;5033642;28;20039;-79
2023/08/06 00:52:25;;;;;;;0.10;0.10;;;;;;;13.12;100.00;95558.84;5031488;28;20793;-79
2023/08/06 00:55:11;;;;;;;0.10;0.10;;;;;;;13.09;100.00;95560.25;5033134;28;20675;-79
2023/08/06 00:57:57;;;;;;;0.10;0.10;;;;;;;13.01;100.00;95555.50;5033248;28;20056;-79
2023/08/06 01:00:43;;;;;;;0.10;0.10;;;;;;;13.05;100.00;95553.03;5032827;28;20048;-79
2023/08/06 01:03:29;;;;;;;0.10;0.10;;;;;;;12.96;100.00;95542.13;5016011;28;20060;-79
2023/08/06 01:06:19;;;;;;;0.10;0.10;;;;;;;12.87;100.00;95540.34;5034528;28;20041;-79
2023/08/06 01:09:14;;;;;;;0.10;0.10;;;;;;;12.90;100.00;95534.41;5030782;28;20036;-79
2023/08/06 01:12:22;;;;;;;0.10;0.10;;;;;;;12.93;100.00;95531.97;5030542;28;20048;-79
2023/08/06 01:15:19;;;;;;;0.10;0.10;;;;;;;12.98;100.00;95539.13;5035364;28;20064;-79
2023/08/06 01:18:06;;;;;;;0.10;0.10;;;;;;;13.10;100.00;95534.19;5018458;28;20148;-80
2023/08/06 01:20:52;;;;;;;0.10;0.10;;;;;;;13.08;100.00;95526.41;5018411;28;20640;-79
2023/08/06 01:23:38;;;;;;;0.10;0.10;;;;;;;13.15;100.00;95522.56;5016734;28;20166;-79
2023/08/06 01:26:33;;;;;;;0.10;0.10;;;;;;;12.98;100.00;95525.72;5018231;28;20033;-79
2023/08/06 01:29:28;;;;;;;0.10;0.10;;;;;;;12.89;100.00;95520.16;5019759;28;20041;-79
2023/08/06 01:32:15;;;;;;;0.10;0.10;;;;;;;12.95;100.00;95524.41;5017296;28;20586;-79
2023/08/06 01:35:03;;;;;;;0.10;0.10;;;;;;;12.92;100.00;95519.63;5032992;28;20045;-79
2023/08/06 01:37:50;;;;;;;0.10;0.10;;;;;;;12.85;100.00;95526.41;5018729;28;20154;-79
2023/08/06 01:40:36;;;;;;;0.10;0.10;;;;;;;12.94;100.00;95511.28;5033130;28;20119;-79
2023/08/06 01:43:22;;;;;;;0.10;0.10;;;;;;;12.99;100.00;95520.06;5032772;28;20052;-79
2023/08/06 01:46:08;;;;;;;0.10;0.10;;;;;;;13.02;100.00;95516.00;5019275;28;20120;-80
2023/08/06 01:48:53;;;;;;;0.20;0.20;;;;;;;12.97;100.00;95505.31;5019509;28;20044;-79
2023/08/06 01:51:39;;;;;;;0.10;0.10;;;;;;;12.90;100.00;95518.28;5034445;28;20043;-79
2023/08/06 01:54:25;;;;;;;0.10;0.10;;;;;;;12.93;100.00;95507.00;5035453;28;20488;-79
2023/08/06 01:57:11;;;;;;;0.10;0.10;;;;;;;12.89;100.00;95503.25;5038104;28;20071;-80
2023/08/06 01:59:57;;;;;;;0.10;0.10;;;;;;;12.79;100.00;95510.34;5036141;28;20036;-79
2023/08/06 02:02:44;;;;;;;0.10;0.10;;;;;;;12.80;100.00;95517.31;5017897;28;20041;-79
2023/08/06 02:05:30;;;;;;;0.10;0.10;;;;;;;12.92;100.00;95511.56;5036060;28;20114;-80
2023/08/06 02:08:15;;;;;;;0.10;0.10;;;;;;;13.09;100.00;95511.09;5036033;28;20029;-80
2023/08/06 02:11:02;;;;;;;0.15;0.15;;;;;;;13.24;100.00;95507.47;5035570;28;20518;-80
2023/08/06 02:13:50;;;;;;;0.00;0.00;;;;;;;13.31;100.00;95502.53;5019789;28;20040;-81
2023/08/06 02:16:38;;;;;;;0.20;0.20;;;;;;;13.45;100.00;95497.22;5030986;28;20041;-81
2023/08/06 02:19:24;;;;;;;0.10;0.10;;;;;;;13.47;100.00;95490.50;5036455;28;20040;-80
2023/08/06 02:22:09;;;;;;;0.10;0.10;;;;;;;13.20;100.00;95496.47;5019905;28;20131;-81
2023/08/06 02:24:55;;;;;;;0.10;0.10;;;;;;;12.88;100.00;95489.03;5019800;28;20788;-78
2023/08/06 02:27:41;;;;;;;0.10;0.10;;;;;;;12.79;100.00;95490.75;5017540;28;20738;-78
2023/08/06 02:30:27;;;;;;;0.10;0.10;;;;;;;12.75;100.00;95487.03;5033920;28;20124;-79
2023/08/06 02:33:13;;;;;;;0.10;0.10;;;;;;;12.67;100.00;95490.34;5034955;28;20048;-79
2023/08/06 02:36:03;;;;;;;0.10;0.10;;;;;;;12.76;100.00;95485.94;5036993;28;20155;-79
2023/08/06 02:38:49;;;;;;;0.10;0.10;;;;;;;12.77;100.00;95474.94;5033324;28;20054;-79
2023/08/06 02:41:35;;;;;;;0.10;0.10;;;;;;;12.88;100.00;95478.31;5032773;28;20037;-79
2023/08/06 02:44:21;;;;;;;0.10;0.10;;;;;;;12.95;100.00;95473.38;5023155;28;20044;-79
2023/08/06 02:47:07;;;;;;;0.10;0.10;;;;;;;12.90;100.00;95465.38;5034414;28;20120;-79
2023/08/06 02:49:53;;;;;;;0.15;0.15;;;;;;;12.83;100.00;95470.31;5033453;28;20091;-79
2023/08/06 02:52:40;;;;;;;0.20;0.20;;;;;;;12.69;100.00;95467.53;5031361;28;20096;-79
2023/08/06 02:55:27;;;;;;;0.20;0.20;;;;;;;12.69;100.00;95472.09;5018219;28;20067;-79
2023/08/06 02:58:13;;;;;;;0.08;0.08;;;;;;;12.66;100.00;95467.28;5032304;28;20401;-79
2023/08/06 03:01:06;;;;;;;0.08;0.08;;;;;;;12.71;100.00;95454.59;5018644;28;20115;-80
2023/08/06 03:04:00;;;;;;;0.15;0.15;;;;;;;12.88;100.00;95456.03;5033227;28;20040;-79
2023/08/06 03:06:53;;;;;;;0.10;0.10;;;;;;;12.96;100.00;95456.19;4991317;28;20520;-80
2023/08/06 03:09:43;;;;;;;0.10;0.10;;;;;;;13.00;100.00;95443.81;4993133;28;20077;-79
2023/08/06 03:12:29;;;;;;;0.10;0.10;;;;;;;12.99;100.00;95439.50;4994387;28;20041;-79
2023/08/06 03:15:18;;;;;;;0.10;0.10;;;;;;;12.98;100.00;95437.91;4994596;28;20125;-80
2023/08/06 03:18:05;;;;;;;0.10;0.10;;;;;;;12.99;100.00;95433.31;4979269;28;20048;-80
2023/08/06 03:20:52;;;;;;;0.10;0.10;;;;;;;12.77;100.00;95432.00;4992680;28;20038;-80
2023/08/06 03:23:38;;;;;;;0.10;0.10;;;;;;;12.72;100.00;95432.03;4994173;28;20045;-80
2023/08/06 03:26:25;;;;;;;0.10;0.10;;;;;;;12.65;100.00;95431.59;5007922;28;20044;-80
2023/08/06 03:29:11;;;;;;;0.10;0.10;;;;;;;12.64;100.00;95423.81;4990147;28;20570;-80
2023/08/06 03:31:58;;;;;;;0.10;0.10;;;;;;;12.59;100.00;95435.41;5006351;28;20442;-80
2023/08/06 03:34:44;;;;;;;0.10;0.10;;;;;;;12.51;100.00;95433.34;5003001;28;20563;-80
2023/08/06 03:37:30;;;;;;;0.10;0.10;;;;;;;12.48;100.00;95428.56;5005274;28;20046;-80
2023/08/06 03:40:16;;;;;;;0.10;0.10;;;;;;;12.38;100.00;95423.31;4994598;28;20052;-80
2023/08/06 03:43:03;;;;;;;0.10;0.10;;;;;;;12.33;100.00;95421.47;5005777;28;20780;-81
2023/08/06 03:45:49;;;;;;;0.10;0.10;;;;;;;12.35;100.00;95424.66;4995439;28;20045;-78
2023/08/06 03:48:35;;;;;;;0.10;0.10;;;;;;;12.44;100.00;95422.97;5004298;28;20860;-79
2023/08/06 03:51:20;;;;;;;0.10;0.10;;;;;;;12.47;100.00;95429.66;4994473;28;20049;-79
2023/08/06 03:54:07;;;;;;;0.10;0.10;;;;;;;12.53;100.00;95415.91;4991540;28;20593;-79
2023/08/06 03:56:53;;;;;;;0.10;0.10;;;;;;;12.63;100.00;95419.56;4991876;28;20070;-79
2023/08/06 03:59:39;;;;;;;0.10;0.10;;;;;;;12.59;100.00;95408.56;4992259;28;20475;-79
2023/08/06 04:02:26;;;;;;;0.20;0.20;;;;;;;12.54;100.00;95409.44;4994420;28;20034;-79
2023/08/06 04:05:13;;;;;;;0.13;0.13;;;;;;;12.52;100.00;95413.47;5006827;28;20048;-79
2023/08/06 04:08:01;;;;;;;0.10;0.10;;;;;;;12.46;100.00;95407.41;5020551;28;20503;-79
2023/08/06 04:10:53;;;;;;;0.10;0.10;;;;;;;12.49;100.00;95411.38;5019083;28;20051;-80
2023/08/06 04:13:42;;;;;;;0.10;0.10;;;;;;;12.48;100.00;95409.78;5037561;28;20040;-80
2023/08/06 04:16:31;;;;;;;0.10;0.10;;;;;;;12.46;100.00;95406.59;5021034;28;20052;-80
2023/08/06 04:19:17;;;;;;;0.10;0.10;;;;;;;12.54;100.00;95412.13;5035313;28;20690;-80
2023/08/06 04:22:03;;;;;;;0.10;0.10;;;;;;;12.54;100.00;95404.09;5020232;28;20036;-80
2023/08/06 04:24:49;;;;;;;0.10;0.10;;;;;;;12.50;100.00;95405.72;5020807;28;20621;-81
2023/08/06 04:27:36;;;;;;;0.10;0.10;;;;;;;12.52;100.00;95400.88;5017575;28;20037;-81
2023/08/06 04:30:22;;;;;;;0.10;0.10;;;;;;;12.52;100.00;95400.06;5033195;28;20033;-81
2023/08/06 04:33:08;;;;;;;0.10;0.10;;;;;;;12.53;100.00;95405.16;5005066;28;20799;-80
2023/08/06 04:35:58;;;;;;;0.10;0.10;;;;;;;12.50;100.00;95410.28;5020537;28;20518;-80
2023/08/06 04:38:47;;;;;;;0.10;0.10;;;;;;;12.52;100.00;95411.59;5035079;28;20052;-80
2023/08/06 04:41:34;;;;;;;0.10;0.10;;;;;;;12.41;100.00;95410.13;5016709;28;20036;-81
2023/08/06 04:44:20;;;;;;;0.05;0.05;;;;;;;12.38;100.00;95399.19;5033647;28;20045;-82
2023/08/06 04:47:06;;;;;;;0.08;0.08;;;;;;;12.28;100.00;95398.19;5019709;28;20048;-82
2023/08/06 04:49:53;;;;;;;0.10;0.10;;;;;;;12.28;100.00;95402.75;5018748;28;20045;-82
2023/08/06 04:52:39;;;;;;;0.10;0.10;;;;;;;12.22;100.00;95401.22;5033902;28;20178;-82
2023/08/06 04:55:25;;;;;;;0.10;0.10;;;;;;;12.18;100.00;95402.84;5036663;28;20068;-80
2023/08/06 04:58:11;;;;;;;0.10;0.10;;;;;;;12.29;100.00;95409.69;5032579;28;20115;-80
2023/08/06 05:00:57;;;;;;;0.10;0.10;;;;;;;12.21;100.00;95413.00;5034215;28;20099;-81
2023/08/06 05:03:42;;;;;;;0.10;0.10;;;;;;;12.23;100.00;95410.88;5033895;28;20067;-81
2023/08/06 05:06:28;;;;;;;0.10;0.10;;;;;;;12.19;100.00;95410.63;5019833;28;20045;-81
2023/08/06 05:09:14;;;;;;;0.10;0.10;;;;;;;12.20;100.00;95398.81;5033808;28;20040;-81
2023/08/06 05:12:04;;;;;;;0.10;0.10;;;;;;;12.33;100.00;95404.59;5035371;28;20123;-79
2023/08/06 05:14:50;;;;;;;0.10;0.10;;;;;;;12.34;100.00;95395.44;5017489;28;20164;-79
2023/08/06 05:17:36;;;;;;;0.10;0.10;;;;;;;12.37;100.00;95411.75;5032636;28;20477;-80
2023/08/06 05:20:30;;;;;;;0.10;0.10;;;;;;;12.32;100.00;95406.47;5034920;28;20544;-82
2023/08/06 05:23:16;;;;;;;0.10;0.10;;;;;;;12.34;100.00;95403.50;5033850;28;20041;-80
2023/08/06 05:26:02;;;;;;;0.10;0.10;;;;;;;12.49;100.00;95408.69;5036757;28;20115;-81
2023/08/06 05:28:51;;;;;;;0.10;0.10;;;;;;;12.55;100.00;95405.69;5021239;28;20048;-81
2023/08/06 05:31:37;;;;;;;0.10;0.10;;;;;;;12.72;100.00;95404.41;5037660;28;20288;-81
2023/08/06 05:34:23;;;;;;;0.10;0.10;;;;;;;12.75;100.00;95401.13;5040247;28;20047;-81
2023/08/06 05:37:09;;;;;;;0.10;0.10;;;;;;;12.77;100.00;95394.41;5037913;28;20039;-80
2023/08/06 05:39:55;;;;;;;0.10;0.10;;;;;;;12.71;100.00;95408.19;5040015;28;20835;-82
2023/08/06 05:42:41;;;;;;;0.13;0.13;;;;;;;12.76;100.00;95394.69;5037964;28;20743;-82
2023/08/06 05:45:27;;;;;;;0.10;0.10;;;;;;;12.80;100.00;95409.13;5036078;28;20475;-81
2023/08/06 05:48:13;;;;;;;0.10;0.10;;;;;;;12.75;100.00;95398.44;5037724;28;20450;-81
2023/08/06 05:50:59;;;;;;;0.10;0.10;;;;;;;12.75;100.00;95406.50;5027589;28;20033;-82
2023/08/06 05:53:46;;;;;;;0.10;0.10;;;;;;;12.68;100.00;95406.06;5041513;28;20509;-81
2023/08/06 05:56:32;;;;;;;0.15;0.15;;;;;;;12.76;100.00;95405.41;5042180;28;20806;-81
2023/08/06 05:59:18;;;;;;;0.17;0.17;;;;;;;12.97;100.00;95404.06;5027552;28;20049;-82
2023/08/06 06:02:04;;;;;;;0.10;0.10;;;;;;;13.09;100.00;95391.03;5041419;28;20583;-81
2023/08/06 06:04:50;;;;;;;0.10;0.10;;;;;;;13.04;100.00;95407.22;5038211;28;20128;-82
2023/08/06 06:07:36;;;;;;;0.10;0.10;;;;;;;13.07;100.00;95395.91;5036381;28;20123;-80
2023/08/06 06:10:22;;;;;;;0.10;0.10;;;;;;;13.08;100.00;95404.75;5038641;28;20142;-81
2023/08/06 06:13:08;;;;;;;0.10;0.10;;;;;;;13.09;100.00;95398.28;5038480;28;20409;-80
2023/08/06 06:15:56;;;;;;;0.10;0.10;;;;;;;13.00;100.00;95403.53;5033823;28;20406;-80
2023/08/06 06:18:42;;;;;;;0.10;0.10;;;;;;;13.00;100.00;95408.88;5020766;28;20512;-80
2023/08/06 06:21:28;;;;;;;0.10;0.10;;;;;;;13.02;100.00;95401.34;5037707;28;20851;-79
2023/08/06 06:24:14;;;;;;;0.10;0.10;;;;;;;13.01;100.00;95405.13;5034915;28;20037;-79
2023/08/06 06:27:00;;;;;;;0.10;0.10;;;;;;;13.22;100.00;95404.84;5038979;28;20763;-80
2023/08/06 06:29:46;;;;;;;0.10;0.10;;;;;;;13.33;100.00;95400.94;5035255;28;20041;-80
2023/08/06 06:32:34;;;;;;;0.10;0.10;;;;;;;13.24;100.00;95406.19;5032452;28;20068;-80
2023/08/06 06:35:20;;;;;;;0.20;0.20;;;;;;;13.36;100.00;95406.53;5037638;28;20045;-80
2023/08/06 06:38:06;;;;;;;0.10;0.10;;;;;;;13.62;100.00;95395.41;5035977;28;20041;-80
2023/08/06 06:40:56;;;;;;;0.10;0.10;;;;;;;13.79;100.00;95403.72;5039092;28;20033;-81
2023/08/06 06:43:42;;;;;;;0.10;0.10;;;;;;;14.02;100.00;95401.19;5034485;28;20044;-80
2023/08/06 06:46:28;;;;;;;0.10;0.10;;;;;;;13.97;100.00;95401.28;5036790;28;20091;-80
2023/08/06 06:49:14;;;;;;;0.13;0.13;;;;;;;13.90;100.00;95404.34;5034999;28;20403;-80
2023/08/06 06:52:00;;;;;;;0.20;0.20;;;;;;;13.94;100.00;95394.59;5037368;28;20045;-79
2023/08/06 06:54:46;;;;;;;0.10;0.10;;;;;;;13.98;100.00;95398.28;5036626;28;20405;-80
2023/08/06 06:57:31;;;;;;;0.15;0.15;;;;;;;14.10;100.00;95395.94;5033268;28;20032;-80
2023/08/06 07:00:17;;;;;;;0.10;0.10;;;;;;;14.30;100.00;95388.59;5035175;28;20033;-81
2023/08/06 07:03:03;;;;;;;0.10;0.10;;;;;;;13.96;100.00;95386.25;5035988;28;20402;-80
2023/08/06 07:05:50;;;;;;;0.10;0.10;;;;;;;13.80;100.00;95393.78;5034151;28;20593;-80
2023/08/06 07:08:36;;;;;;;0.10;0.10;;;;;;;13.86;100.00;95392.59;5030967;28;20089;-80
2023/08/06 07:11:21;;;;;;;0.10;0.10;;;;;;;14.15;100.00;95390.44;5034960;28;20147;-81
2023/08/06 07:14:08;;;;;;;0.20;0.20;;;;;;;13.91;100.00;95395.97;5021003;28;20418;-82
2023/08/06 07:16:54;;;;;;;0.10;0.10;;;;;;;14.01;100.00;95392.34;5036222;28;20040;-81
2023/08/06 07:19:39;;;;;;;0.10;0.10;;;;;;;14.06;100.00;95388.75;5033729;28;20037;-80
2023/08/06 07:22:25;;;;;;;0.10;0.10;;;;;;;14.14;100.00;95390.75;5036661;28;20051;-81
2023/08/06 07:25:11;;;;;;;0.10;0.10;;;;;;;14.39;100.00;95392.97;5014716;28;20483;-81
2023/08/06 07:27:57;;;;;;;0.10;0.10;;;;;;;14.60;100.00;95400.69;5035167;28;20133;-81
2023/08/06 07:30:46;;;;;;;0.10;0.10;;;;;;;14.80;100.00;95394.13;5034546;28;20495;-81
2023/08/06 07:33:32;;;;;;;0.10;0.10;;;;;;;14.87;100.00;95384.53;5018855;28;20494;-81
2023/08/06 07:36:18;;;;;;;0.10;0.10;;;;;;;14.78;100.00;95397.09;5032530;28;20037;-80
2023/08/06 07:39:06;;;;;;;0.10;0.10;;;;;;;14.75;100.00;95401.19;5032749;28;20685;-81
2023/08/06 07:41:51;;;;;;;0.15;0.15;;;;;;;14.92;100.00;95402.47;5034242;28;20045;-81
2023/08/06 07:44:37;;;;;;;0.10;0.10;;;;;;;14.81;100.00;95393.03;5035056;28;20076;-80
2023/08/06 07:47:23;;;;;;;0.10;0.10;;;;;;;14.74;100.00;95398.81;5034608;28;20037;-79
2023/08/06 07:50:09;;;;;;;0.10;0.10;;;;;;;14.90;100.00;95389.31;5008317;28;20048;-81
2023/08/06 07:52:55;;;;;;;0.10;0.10;;;;;;;14.89;100.00;95400.38;5033825;28;20037;-80
2023/08/06 07:55:41;;;;;;;0.10;0.10;;;;;;;14.75;100.00;95403.88;5031564;28;20049;-81
2023/08/06 07:58:27;;;;;;;0.10;0.10;;;;;;;15.10;100.00;95398.88;5032816;28;20037;-81
2023/08/06 08:01:13;;;;;;;0.20;0.20;;;;;;;15.55;100.00;95396.22;5033162;28;20106;-81
2023/08/06 08:03:59;;;;;;;0.10;0.10;;;;;;;15.95;100.00;95402.56;5032450;28;20033;-82
2023/08/06 08:06:45;;;;;;;0.10;0.10;;;;;;;16.01;100.00;95401.34;5020428;28;20041;-79
2023/08/06 08:09:31;;;;;;;0.10;0.10;;;;;;;15.93;100.00;95398.59;5032542;28;20032;-81
2023/08/06 08:12:17;;;;;;;0.13;0.13;;;;;;;15.98;100.00;95390.38;5034676;28;20139;-80
2023/08/06 08:15:03;;;;;;;0.10;0.10;;;;;;;15.25;100.00;95395.03;5034427;28;20041;-81
2023/08/06 08:17:49;;;;;;;0.10;0.10;;;;;;;15.41;100.00;95390.09;5034229;28;20032;-81
2023/08/06 08:20:35;;;;;;;0.10;0.10;;;;;;;15.49;100.00;95390.19;5035665;28;20033;-82
2023/08/06 08:23:21;;;;;;;0.20;0.20;;;;;;;15.30;100.00;95398.41;5001452;28;20044;-81
2023/08/06 08:26:07;;;;;;;0.10;0.10;;;;;;;15.70;100.00;95389.72;5033814;28;20082;-81
2023/08/06 08:28:53;;;;;;;0.10;0.10;;;;;;;16.23;100.00;95394.34;5018815;28;20034;-81
2023/08/06 08:31:39;;;;;;;0.10;0.10;;;;;;;16.62;100.00;95391.66;5030170;28;20041;-80
2023/08/06 08:34:25;;;;;;;0.10;0.10;;;;;;;16.87;100.00;95387.47;5033205;28;20067;-80
2023/08/06 08:37:11;;;;;;;0.10;0.10;;;;;;;16.96;100.00;95399.13;5030450;28;20054;-80
2023/08/06 08:39:57;;;;;;;0.10;0.10;;;;;;;17.07;100.00;95388.78;5034162;28;20064;-80
2023/08/06 08:42:43;;;;;;;0.20;0.20;;;;;;;17.27;100.00;95381.97;5032323;28;20036;-81
2023/08/06 08:45:30;;;;;;;0.10;0.10;;;;;;;17.45;100.00;95394.41;5035653;28;20037;-81
2023/08/06 08:48:17;;;;;;;0.10;0.10;;;;;;;17.56;100.00;95394.88;5032493;28;20635;-81
2023/08/06 08:51:03;;;;;;;0.10;0.10;;;;;;;17.62;100.00;95395.53;5033382;28;20048;-82
2023/08/06 08:53:58;;;;;;;0.10;0.10;;;;;;;17.60;100.00;95389.66;5031523;28;20403;-80
2023/08/06 08:56:44;;;;;;;0.20;0.20;;;;;;;17.65;100.00;95386.75;5033015;28;20100;-80
2023/08/06 08:59:34;;;;;;;0.20;0.20;;;;;;;17.73;100.00;95411.13;5034619;28;20037;-81
2023/08/06 09:02:23;;;;;;;0.17;0.17;;;;;;;17.59;100.00;95396.97;5039315;28;20051;-81
2023/08/06 09:05:10;;;;;;;0.10;0.10;;;;;;;17.73;100.00;95394.91;5040411;28;20545;-80
2023/08/06 09:08:12;;;;;;;0.10;0.10;;;;;;;17.92;100.00;95402.69;5021046;28;20123;-80
2023/08/06 09:10:58;;;;;;;0.20;0.20;;;;;;;18.05;100.00;95401.72;5038077;28;20037;-81
2023/08/06 09:13:44;;;;;;;0.10;0.10;;;;;;;17.93;100.00;95409.69;5038032;28;20911;-81
2023/08/06 09:16:30;;;;;;;0.20;0.20;;;;;;;17.23;100.00;95408.84;5040056;28;20044;-81
2023/08/06 09:19:17;;;;;;;0.10;0.10;;;;;;;16.75;100.00;95414.28;5038979;28;20052;-80
2023/08/06 09:22:03;;;;;;;0.10;0.10;;;;;;;16.67;100.00;95415.81;5040388;28;20037;-80
2023/08/06 09:24:49;;;;;;;0.10;0.10;;;;;;;16.60;100.00;95422.78;5012762;28;20543;-80
2023/08/06 09:27:36;;;;;;;0.10;0.10;;;;;;;16.77;100.00;95417.47;5034755;28;20613;-80
2023/08/06 09:30:33;;;;;;;0.10;0.10;;;;;;;16.91;100.00;95418.16;5038309;28;20037;-80
2023/08/06 09:33:19;;;;;;;0.10;0.10;;;;;;;16.83;100.00;95427.03;5041261;28;20058;-80
2023/08/06 09:36:10;;;;;;;0.10;0.10;;;;;;;16.65;100.00;95425.31;5039760;28;20492;-80
2023/08/06 09:38:56;;;;;;;0.10;0.10;;;;;;;16.36;100.00;95426.66;5018946;28;20130;-80
2023/08/06 09:41:43;;;;;;;0.10;0.10;;;;;;;15.85;100.00;95422.50;5038475;28;20123;-80
2023/08/06 09:44:30;;;;;;;0.10;0.10;;;;;;;15.92;100.00;95430.19;5041330;28;20039;-81
2023/08/06 09:47:18;;;;;;;0.10;0.10;;;;;;;15.72;100.00;95436.88;5038295;28;20699;-80
2023/08/06 09:50:06;;;;;;;0.13;0.13;;;;;;;15.76;100.00;95437.84;5028488;28;20041;-80
2023/08/06 09:52:52;;;;;;;0.10;0.10;;;;;;;15.57;100.00;95446.06;5036738;28;21021;-81
2023/08/06 09:55:39;;;;;;;0.10;0.10;;;;;;;15.88;100.00;95446.19;5042852;28;20044;-81
2023/08/06 09:58:25;;;;;;;0.10;0.10;;;;;;;15.97;100.00;95437.34;5040209;28;20482;-80
2023/08/06 10:01:12;;;;;;;0.10;0.10;;;;;;;16.34;100.00;95441.53;5040673;28;20206;-81
2023/08/06 10:03:58;;;;;;;0.10;0.10;;;;;;;16.87;100.00;95440.69;5039887;28;20079;-82
2023/08/06 10:06:49;;;;;;;0.20;0.20;;;;;;;17.31;100.00;95437.00;5040891;28;20040;-80
2023/08/06 10:09:35;;;;;;;;;;;;;;;17.61;100.00;95431.81;5041545;28;20033;-80
2023/08/06 10:12:24;;;;;;;0.17;0.17;;;;;;;17.75;100.00;95430.56;5035190;28;19923;-82
2023/08/06 10:15:17;;;;;;;0.10;0.10;;;;;;;17.58;100.00;95432.41;5037028;28;20564;-81
2023/08/06 10:18:04;;;;;;;0.10;0.10;;;;;;;17.54;100.00;95429.56;5038867;28;20063;-81
2023/08/06 10:20:50;;;;;;;0.10;0.10;;;;;;;17.59;100.00;95423.19;5036947;28;20236;-82
2023/08/06 10:23:38;;;;;;;0.10;0.10;;;;;;;17.49;100.00;95425.09;5009016;28;20048;-82
2023/08/06 10:26:28;;;;;;;0.10;0.10;;;;;;;17.62;100.00;95428.78;5039092;28;20029;-82
2023/08/06 10:29:36;;;;;;;0.20;0.20;;;;;;;17.78;100.00;95415.59;5036607;28;20043;-81
2023/08/06 10:32:52;;;;;;;0.10;0.10;;;;;;;17.69;100.00;95429.09;5035133;28;20554;-82
2023/08/06 10:35:43;;;;;;;0.10;0.10;;;;;;;17.29;100.00;95428.44;5007226;28;20203;-81
2023/08/06 10:38:31;;;;;;;0.10;0.10;;;;;;;17.15;100.00;95428.56;5019514;28;20091;-81
2023/08/06 10:41:30;;;;;;;0.10;0.10;;;;;;;17.18;100.00;95435.22;5035376;28;20037;-81
2023/08/06 10:44:16;;;;;;;0.10;0.10;;;;;;;16.96;100.00;95428.00;5039466;28;20135;-81
2023/08/06 10:47:25;;;;;;;0.10;0.10;;;;;;;16.93;100.00;95426.75;5049100;28;20035;-80
2023/08/06 10:50:13;;;;;;;0.10;0.10;;;;;;;16.79;100.00;95431.47;5061759;28;20040;-81
2023/08/06 10:53:08;;;;;;;0.10;0.10;;;;;;;16.60;100.00;95433.59;5060954;28;20037;-81
2023/08/06 10:55:54;;;;;;;0.10;0.10;;;;;;;16.38;100.00;95432.53;5037804;28;20875;-81
2023/08/06 10:58:40;;;;;;;0.10;0.10;;;;;;;16.40;100.00;95445.72;5035460;28;20045;-81
2023/08/06 11:01:29;;;;;;;0.10;0.10;;;;;;;16.20;100.00;95441.63;5037573;28;20124;-81
2023/08/06 11:04:17;;;;;;;0.13;0.13;;;;;;;15.71;100.00;95447.94;5005229;28;20552;-82
2023/08/06 11:07:02;;;;;;;0.10;0.10;;;;;;;15.59;100.00;95443.06;5022292;28;20040;-81
2023/08/06 11:09:50;;;;;;;0.20;0.20;;;;;;;15.28;100.00;95453.72;5034333;28;20044;-81
2023/08/06 11:12:37;;;;;;;0.10;0.10;;;;;;;15.26;100.00;95451.34;5033881;28;20700;-82
2023/08/06 11:15:23;;;;;;;0.17;0.17;;;;;;;14.86;100.00;95455.63;5033815;28;20040;-80
2023/08/06 11:18:09;;;;;;;0.10;0.10;;;;;;;14.96;100.00;95458.16;5036047;28;20118;-80
2023/08/06 11:20:55;;;;;;;0.10;0.10;;;;;;;14.56;100.00;95459.72;5032547;28;20065;-80
2023/08/06 11:23:41;;;;;;;0.10;0.10;;;;;;;14.32;100.00;95473.31;5036102;28;20041;-80
2023/08/06 11:26:28;;;;;;;0.10;0.10;;;;;;;14.10;100.00;95465.09;5033847;28;20147;-81
2023/08/06 11:29:19;;;;;;;0.10;0.10;;;;;;;14.00;100.00;95468.72;5037301;28;20045;-81
2023/08/06 11:32:05;;;;;;;0.10;0.10;;;;;;;13.84;100.00;95470.06;5036393;28;20888;-80
2023/08/06 11:34:54;;;;;;;0.10;0.10;;;;;;;13.68;100.00;95485.59;5019241;28;20240;-80
2023/08/06 11:37:45;;;;;;;0.10;0.10;;;;;;;13.53;100.00;95507.31;5034246;28;20604;-82
2023/08/06 11:40:35;;;;;;;0.10;0.10;;;;;;;13.43;100.00;95502.91;5022751;28;20067;-81
2023/08/06 11:43:22;;;;;;;0.10;0.10;;;;;;;13.49;100.00;95506.31;5036792;28;20074;-81
2023/08/06 11:46:08;;;;;;;0.10;0.10;;;;;;;13.11;100.00;95507.03;5034402;28;20037;-81
2023/08/06 11:48:55;;;;;;;0.10;0.10;;;;;;;12.86;100.00;95518.06;5033970;28;20751;-82
2023/08/06 11:51:41;;;;;;;0.10;0.10;;;;;;;12.88;100.00;95518.56;5034735;28;20073;-81
2023/08/06 11:54:33;;;;;;;0.10;0.10;;;;;;;12.97;100.00;95521.44;5034777;28;20567;-82
2023/08/06 11:57:20;;;;;;;0.10;0.10;;;;;;;12.97;100.00;95524.13;5037943;28;20543;-79
2023/08/06 12:00:11;;;;;;;0.10;0.10;;;;;;;13.03;100.00;95521.09;5052658;28;20058;-81
2023/08/06 12:03:02;;;;;;;0.10;0.10;;;;;;;13.05;100.00;95540.41;5050010;28;20102;-80
2023/08/06 12:05:48;;;;;;;0.10;0.10;;;;;;;13.09;100.00;95560.25;5038076;28;20118;-81
2023/08/06 12:08:34;;;;;;;0.10;0.10;;;;;;;13.07;100.00;95532.88;5034491;28;20102;-81
2023/08/06 12:11:23;;;;;;;0.10;0.10;;;;;;;12.74;100.00;95550.66;5036006;28;20068;-81
2023/08/06 12:14:09;;;;;;;0.10;0.10;;;;;;;12.78;100.00;95557.06;5031386;28;20048;-80
2023/08/06 12:16:55;;;;;;;0.10;0.10;;;;;;;12.79;100.00;95555.19;5038813;28;20037;-82
2023/08/06 12:19:41;;;;;;;0.10;0.10;;;;;;;12.73;100.00;95559.78;5034907;28;20776;-82
2023/08/06 12:22:27;;;;;;;0.10;0.10;;;;;;;12.48;100.00;95550.09;5029908;28;20072;-81
2023/08/06 12:25:13;;;;;;;0.10;0.10;;;;;;;12.22;100.00;95578.22;5035667;28;20601;-82
2023/08/06 12:27:59;;;;;;;0.00;0.00;;;;;;;12.21;100.00;95565.88;5034747;28;20932;-81
2023/08/06 12:30:45;;;;;;;0.10;0.10;;;;;;;12.24;100.00;95571.50;5023377;28;20040;-80
2023/08/06 12:33:31;;;;;;;0.10;0.10;;;;;;;12.31;100.00;95565.81;5035495;28;20067;-81
2023/08/06 12:36:17;;;;;;;0.10;0.10;;;;;;;12.46;100.00;95575.63;5034690;28;20075;-82
2023/08/06 12:39:03;;;;;;;0.10;0.10;;;;;;;12.54;100.00;95593.81;5032884;28;20079;-82
2023/08/06 12:41:49;;;;;;;0.10;0.10;;;;;;;12.63;100.00;95577.91;5035181;28;20717;-80
2023/08/06 12:44:35;;;;;;;0.10;0.10;;;;;;;12.76;100.00;95587.94;5036279;28;20037;-82
2023/08/06 12:47:21;;;;;;;0.10;0.10;;;;;;;12.90;100.00;95607.69;5033673;28;20056;-81
2023/08/06 12:50:08;;;;;;;0.10;0.10;;;;;;;12.95;100.00;95602.28;5037216;28;20037;-80
2023/08/06 12:52:54;;;;;;;0.10;0.10;;;;;;;13.06;100.00;95608.34;5033462;28;20037;-79
2023/08/06 12:55:41;;;;;;;0.10;0.10;;;;;;;13.02;100.00;95608.13;5035163;28;20040;-81
2023/08/06 12:58:27;;;;;;;0.10;0.10;;;;;;;12.75;100.00;95605.94;5035953;28;20578;-81